Sparta Community Hunter Field

About
Name: Sparta Community Hunter Field
Identifier:  SAR/KSAR
Local Time:  25. Aug 04:28 CDT
Location
Flights per Day
0 flights
Distance: 88km (54mi)
Punctuality
0% (0 flights per day delayed)
Delay Average: 15 minutes
Current Weather
 18 C (Humidity: 88%)
  4kt (7km/h / 4mph) from 100°
  Scattered clouds at 8,000 feet (2,438 meter)
  Overcast at 9,000 feet (2,743 meter)
  16km (10 mi.)
 METAR KSAR 250855Z AUTO 10004KT 10SM SCT080 OVC090 18/16 A3004 RMK AO2 T01820162

Current Flights

Departures
Number Departure To Airline
Arrivals
Number Arrival From Airline

Current Delays

Departures
N/A
Arrivals
N/A

Destinations

Top Destinations
Airport Flights
per week
Seats
per week
  Lancaster (LNS) 0 - 0 0
  St. Louis (SUS) 0 - 0 0

Airlines & Planes

Top Airlines
Airline Flights
per Day
Seats
per Day
  National Airlines 0 -
Jet Charter Inc ( Franklin Lakes Nj ) 0 -
Top Plane Types
Model Flights Seats